METAR Data
IDs: Format: Raw Decoded Include TAF

Data at: 0857 UTC 26 Jan 2020

KASX 260853Z AUTO 21005KT 10SM BKN012 OVC028 M02/M03 A2989 RMK AO2 SLP132 T10221033 58002
KASX 260753Z AUTO 22005KT 10SM OVC012 M02/M03 A2989 RMK AO2 SLP133 T10171033
KASX 260653Z AUTO 23005KT 10SM OVC013 M01/M03 A2989 RMK AO2 SLP135 T10111028
KASX 260620Z AUTO 25003KT 10SM OVC014 M02/M02 A2989 RMK AO2 T10171022
KASX 260553Z AUTO 22004KT 10SM BKN016 OVC025 M02/M03 A2989 RMK AO2 SLP134 T10171028 11006 21022 400111022 55000
KASX 260513Z AUTO 24003KT 10SM BKN024 OVC038 M02/M03 A2990 RMK AO2 T10221028
KASX 260453Z AUTO 00000KT 10SM SCT024 SCT030 OVC038 M02/M03 A2989 RMK AO2 SLP133 T10171028
KASX 260403Z AUTO 26004KT 10SM SCT023 OVC038 M02/M03 A2989 RMK AO2 T10171028
KASX 260353Z AUTO 27004KT 10SM BKN024 OVC039 M02/M03 A2989 RMK AO2 SLP133 T10171028
KASX 260253Z AUTO 24004KT 10SM BKN015 OVC025 M01/M02 A2989 RMK AO2 SLP133 T10111022 53000
KASX 260153Z AUTO 27003KT 10SM OVC021 M01/M02 A2989 RMK AO2 SLP132 T10061017
KASX 260053Z AUTO 23003KT 10SM OVC020 M01/M01 A2989 RMK AO2 SLP134 T10061011
KASX 260003Z AUTO 00000KT 6SM BR BKN023 OVC046 M01/M01 A2989 RMK AO2 T10061011
KASX 252353Z AUTO 00000KT 8SM SCT023 OVC046 M01/M01 A2989 RMK AO2 SLP133 60000 T10061011 10011 21006 53002
KASX 252253Z AUTO 25004KT 6SM BR FEW028 OVC047 00/M01 A2989 RMK AO2 SNE13 SLP131 P0000 T00001006
KASX 252230Z AUTO 27003KT 8SM FEW003 SCT016 OVC043 00/M01 A2989 RMK AO2 SNE13 P0000 T00001006
KASX 252216Z AUTO 00000KT 5SM BR SCT016 BKN027 OVC050 00/M01 A2989 RMK AO2 SNE13 P0000 T00001006
KASX 252157Z AUTO 00000KT 2SM -SN BR FEW015 SCT029 OVC038 00/M01 A2989 RMK AO2 P0000 T00001006
KASX 252153Z AUTO 00000KT 1 1/2SM -SN BR FEW015 BKN029 OVC040 00/M01 A2989 RMK AO2 SNB05 SLP132 P0000 T00001006
KASX 252144Z AUTO 30003KT 1SM -SN BR FEW016 BKN031 OVC040 00/M01 A2989 RMK AO2 SNB05 P0000 T00001011
KASX 252114Z AUTO 36003KT 1 1/2SM -SN BR SCT022 BKN027 OVC034 01/M01 A2988 RMK AO2 SNB05 P0000 T00061011
KASX 252104Z AUTO 34004KT 2 1/2SM BR FEW009 OVC021 01/M01 A2989 RMK AO2 T00061011
KASX 252053Z AUTO 35005KT 3SM BR SCT013 OVC021 01/M01 A2988 RMK AO2 SNB02E39 SLP130 P0000 60000 T00061011 55004
KASX 252029Z AUTO 33004KT 4SM -SN BR BKN013 OVC027 01/M01 A2988 RMK AO2 SNB02 P0000 T00061011
KASX 252019Z AUTO 35005KT 2SM -SN BR BKN014 OVC025 01/M01 A2988 RMK AO2 SNB02 P0000 T00061011
KASX 251953Z AUTO 33007KT 10SM OVC014 01/M02 A2988 RMK AO2 SLP129 T00061017
KASX 251853Z AUTO 32009KT 3SM BR OVC010 01/M01 A2989 RMK AO2 SLP131 T00061011
KASX 251810Z AUTO 31004KT 10SM OVC010 01/M01 A2989 RMK AO2 T00061006
KASX 251753Z AUTO 32004KT 10SM OVC009 01/M01 A2990 RMK AO2 CIG 006V012 SLP134 60002 T00061011 10006 21006 58004
KASX 251653Z AUTO 33005KT 4SM BR OVC007 01/M01 A2991 RMK AO2 CIG 005V009 SLP138 T00061006
KASX 251553Z AUTO 34006KT 5SM BR BKN006 OVC023 00/M01 A2991 RMK AO2 SNE36 CIG 003V009 SLP139 P0001 T00001011
KASX 251542Z AUTO 34005KT 3SM BR OVC006 00/M01 A2991 RMK AO2 SNE36 CIG 003V009 P0001 T00001011
KASX 251533Z AUTO 34005KT 2SM -SN BR BKN004 OVC008 00/M01 A2991 RMK AO2 P0001 T00001011
KASX 251509Z AUTO 34005KT 1SM -SN BR OVC004 M01/M01 A2991 RMK AO2 P0000 T10061006
KASX 251453Z AUTO 35006KT 3/4SM -SN BR BKN004 BKN009 OVC020 M01/M01 A2991 RMK AO2 SNB06 SLP140 P0000 60001 T10061006 50002
KASX 251440Z AUTO 36007KT 3/4SM -SN BR BKN003 OVC020 M01/M01 A2991 RMK AO2 SNB06 P0000 T10061011
KASX 251417Z AUTO 36007KT 3/4SM -SN BR BKN009 OVC014 M01/M01 A2991 RMK AO2 SNB06 P0000 T10061006
KASX 251402Z AUTO 36006KT 1 1/2SM BR FEW003 OVC009 M01/M01 A2991 RMK AO2 CIG 006V012 T10061006
KASX 251353Z AUTO 35007KT 1 1/2SM BR BKN003 OVC011 M01/M01 A2991 RMK AO2 SNE17 CIG 002V007 SLP141 P0000 T10061006
KASX 251333Z AUTO 36007KT 1 3/4SM BR OVC003 M01/M01 A2991 RMK AO2 SNE17 CIG 002V007 P0000 T10061006
KASX 251314Z AUTO 01008KT 2 1/2SM -SN BR OVC005 M01/M01 A2991 RMK AO2 CIG 003V009 P0000 T10061011
KASX 251253Z AUTO 01008KT 1 3/4SM -SN BR OVC007 00/M01 A2990 RMK AO2 CIG 004V011 SLP138 P0001 T00001006
KASX 251249Z AUTO 01009KT 1 3/4SM -SN BR OVC006 00/M01 A2990 RMK AO2 CIG 003V011 P0001
KASX 251241Z AUTO 01009KT 2SM -SN BR BKN006 OVC010 00/M01 A2991 RMK AO2 CIG 003V008 P0001 T00001006
KASX 251230Z AUTO 01010KT 1 3/4SM -SN BR OVC004 00/M01 A2991 RMK AO2 CIG 003V009 P0001 T00001006
KASX 251201Z AUTO 36010KT 2SM -SN BR OVC003 00/M01 A2991 RMK AO2 CIG 002V006 P0000 T00001006
KASX 251153Z AUTO 36009KT 1 3/4SM -SN BR OVC003 00/M01 A2990 RMK AO2 SNB00 SLP138 P0000 60001 70002 I6000 T00001006 10006 20000 55000
KASX 251120Z AUTO 01012KT 1SM -SN BR OVC004 00/M01 A2990 RMK AO2 SNB00 P0000 T00001006
KASX 251110Z AUTO 02011KT 2 1/2SM -SN BR OVC004 00/M01 A2990 RMK AO2 SNB00 P0000 T00001006
KASX 251053Z AUTO 01013KT 6SM BR OVC003 00/M01 A2990 RMK AO2 SNE14 SLP137 P0000 I1000 T00001006
KASX 251021Z AUTO 01011KT 4SM BR OVC002 00/00 A2990 RMK AO2 SNE14 P0000 T00000000
KASX 251009Z AUTO 01011KT 2 1/2SM -SN BR OVC002 00/00 A2990 RMK AO2 P0000 T00000000
KASX 250953Z AUTO 02010KT 1 1/4SM -SN BR OVC002 00/00 A2990 RMK AO2 SLP136 P0000 T00000000
KASX 250901Z AUTO 02010KT 1 1/2SM -SN BR OVC002 00/00 A2990 RMK AO2 P0000 T00000000
KASX 250853Z AUTO 02009KT 2SM -SN BR OVC003 00/00 A2990 RMK AO2 SNB48 SLP138 P0000 60001 T00000000 56010
KASX 250753Z AUTO 02008KT 5SM BR OVC002 00/00 A2991 RMK AO2 SLP140 T00000000
KASX 250712Z AUTO 01010KT 3SM BR OVC002 00/00 A2991 RMK AO2 T00000000
KASX 250653Z AUTO 01008KT 2SM BR OVC002 00/00 A2991 RMK AO2 SNB01E46 SLP139 P0001 T00000000
KASX 250644Z AUTO 02010KT 1 3/4SM -SN BR OVC002 00/00 A2992 RMK AO2 SNB01 P0001 T00000000
KASX 250613Z AUTO 03009KT 2 1/2SM -SN BR OVC003 00/M01 A2992 RMK AO2 SNB01 P0000 T00001006
KASX 250553Z AUTO 02011KT 4SM BR OVC003 00/00 A2993 RMK AO2 SLP147 60000 I6001 T00000000 10000 20000 400061006 56006
KASX 250453Z AUTO 01009KT 3SM BR OVC002 00/00 A2994 RMK AO2 SLP151 T00000000
KASX 250450Z AUTO 01009KT 3SM BR OVC002 00/00 A2994 RMK AO2
KASX 250437Z AUTO 01009KT 2SM BR OVC002 00/00 A2994 RMK AO2 T00000000
KASX 250353Z AUTO 02007KT 1 1/4SM BR OVC002 00/00 A2995 RMK AO2 SNE06 SLP155 P0000 I1001 T00000000
KASX 250253Z AUTO 02007KT 3/4SM -SN BR VV002 00/M01 A2997 RMK AO2 SNB15 SLP159 P0000 60000 T00001006 58008
KASX 250153Z AUTO 02008KT 1 1/2SM BR OVC002 00/M01 A2998 RMK AO2 SNE33 SLP165 P0000 T00001006
KASX 250121Z AUTO 02008KT 1 3/4SM -SN BR OVC002 00/M01 A2999 RMK AO2 P0000 T00001006
KASX 250104Z AUTO 02008KT 2SM -SN BR OVC003 00/M01 A2999 RMK AO2 P0000 T00001006
KASX 250053Z AUTO 02008KT 1 1/2SM -SN BR OVC003 00/M01 A2999 RMK AO2 SLP167 P0000 T00001006
KASX 250050Z AUTO 02008KT 1 1/2SM -SN BR OVC003 00/M01 A2999 RMK AO2 P0000
KASX 250015Z AUTO 02008KT 2 1/2SM -SN BR OVC003 00/M01 A3000 RMK AO2 P0000 T00001006
KASX 242353Z AUTO 02008KT 3SM -SN BR OVC004 00/M01 A2999 RMK AO2 SNB14 SLP169 P0001 60001 T00001006 10006 20000 56002
KASX 242253Z AUTO 02007KT 3SM BR OVC004 00/M01 A3000 RMK AO2 SLP169 T00001006
KASX 242242Z AUTO 03008KT 3SM BR OVC003 00/M01 A3000 RMK AO2 T00001006
KASX 242153Z AUTO 03008KT 10SM BKN007 OVC014 00/M01 A3000 RMK AO2 CIG 005V009 SLP169 T00001011
KASX 242144Z AUTO 03009KT 10SM BKN005 OVC014 00/M01 A3000 RMK AO2 CIG 004V009 T00001011
KASX 242103Z AUTO 03008KT 6SM BR OVC004 00/M01 A3000 RMK AO2 CIG 003V008 T00001006